sensor_id;sensor_type;location;lat;lon;timestamp;temperature;humidity
76789;DHT22;65740;52.464;13.446;2023-10-19T00:00:56;14.00;53.60
76789;DHT22;65740;52.464;13.446;2023-10-19T00:03:24;14.00;53.60
76789;DHT22;65740;52.464;13.446;2023-10-19T00:05:50;14.00;54.30
76789;DHT22;65740;52.464;13.446;2023-10-19T00:08:16;14.00;53.60
76789;DHT22;65740;52.464;13.446;2023-10-19T00:10:43;14.00;53.60
76789;DHT22;65740;52.464;13.446;2023-10-19T00:13:11;14.00;53.60
76789;DHT22;65740;52.464;13.446;2023-10-19T00:15:41;14.00;53.60
76789;DHT22;65740;52.464;13.446;2023-10-19T00:18:13;14.00;53.60
76789;DHT22;65740;52.464;13.446;2023-10-19T00:20:42;14.00;53.60
76789;DHT22;65740;52.464;13.446;2023-10-19T00:23:17;14.00;53.60
76789;DHT22;65740;52.464;13.446;2023-10-19T00:26:04;14.00;53.60
76789;DHT22;65740;52.464;13.446;2023-10-19T00:28:34;14.00;53.60
76789;DHT22;65740;52.464;13.446;2023-10-19T00:31:01;13.90;53.50
76789;DHT22;65740;52.464;13.446;2023-10-19T00:33:34;13.90;53.50
76789;DHT22;65740;52.464;13.446;2023-10-19T00:36:09;14.00;53.60
76789;DHT22;65740;52.464;13.446;2023-10-19T00:38:39;14.00;53.60
76789;DHT22;65740;52.464;13.446;2023-10-19T00:41:07;13.90;53.50
76789;DHT22;65740;52.464;13.446;2023-10-19T00:43:37;13.90;53.50
76789;DHT22;65740;52.464;13.446;2023-10-19T00:46:12;14.00;53.60
76789;DHT22;65740;52.464;13.446;2023-10-19T00:48:56;13.90;53.50
76789;DHT22;65740;52.464;13.446;2023-10-19T00:51:51;13.90;53.50
76789;DHT22;65740;52.464;13.446;2023-10-19T00:54:20;13.90;53.50
76789;DHT22;65740;52.464;13.446;2023-10-19T00:57:01;13.90;53.60
76789;DHT22;65740;52.464;13.446;2023-10-19T00:59:38;13.90;53.60
76789;DHT22;65740;52.464;13.446;2023-10-19T01:02:08;13.90;53.60
76789;DHT22;65740;52.464;13.446;2023-10-19T01:04:47;13.90;53.50
76789;DHT22;65740;52.464;13.446;2023-10-19T01:07:17;13.90;53.50
76789;DHT22;65740;52.464;13.446;2023-10-19T01:09:53;13.90;53.50
76789;DHT22;65740;52.464;13.446;2023-10-19T01:12:19;13.90;53.40
76789;DHT22;65740;52.464;13.446;2023-10-19T01:15:09;13.90;53.40
76789;DHT22;65740;52.464;13.446;2023-10-19T01:17:52;13.90;53.50
76789;DHT22;65740;52.464;13.446;2023-10-19T01:20:23;13.80;53.30
76789;DHT22;65740;52.464;13.446;2023-10-19T01:23:06;13.80;53.40
76789;DHT22;65740;52.464;13.446;2023-10-19T01:28:32;13.80;53.30
76789;DHT22;65740;52.464;13.446;2023-10-19T01:31:08;13.80;53.40
76789;DHT22;65740;52.464;13.446;2023-10-19T01:33:34;13.80;53.30
76789;DHT22;65740;52.464;13.446;2023-10-19T01:36:00;13.80;53.30
76789;DHT22;65740;52.464;13.446;2023-10-19T01:38:45;13.80;53.30
76789;DHT22;65740;52.464;13.446;2023-10-19T01:41:13;13.80;53.30
76789;DHT22;65740;52.464;13.446;2023-10-19T01:43:42;13.80;53.30
76789;DHT22;65740;52.464;13.446;2023-10-19T01:46:10;13.80;53.30
76789;DHT22;65740;52.464;13.446;2023-10-19T01:48:48;13.80;53.30
76789;DHT22;65740;52.464;13.446;2023-10-19T01:51:15;13.80;54.00
76789;DHT22;65740;52.464;13.446;2023-10-19T01:53:41;13.80;53.30
76789;DHT22;65740;52.464;13.446;2023-10-19T01:56:14;13.80;53.40
76789;DHT22;65740;52.464;13.446;2023-10-19T01:58:41;13.80;53.30
76789;DHT22;65740;52.464;13.446;2023-10-19T02:01:07;13.80;53.30
76789;DHT22;65740;52.464;13.446;2023-10-19T02:03:42;13.80;53.40
76789;DHT22;65740;52.464;13.446;2023-10-19T02:06:09;13.70;53.30
76789;DHT22;65740;52.464;13.446;2023-10-19T02:08:55;13.80;53.40
76789;DHT22;65740;52.464;13.446;2023-10-19T02:11:27;13.80;53.30
76789;DHT22;65740;52.464;13.446;2023-10-19T02:13:56;13.70;53.30
76789;DHT22;65740;52.464;13.446;2023-10-19T02:16:29;13.70;53.20
76789;DHT22;65740;52.464;13.446;2023-10-19T02:18:55;13.70;53.40
76789;DHT22;65740;52.464;13.446;2023-10-19T02:21:21;13.80;53.30
76789;DHT22;65740;52.464;13.446;2023-10-19T02:23:56;13.70;53.30
76789;DHT22;65740;52.464;13.446;2023-10-19T02:26:23;13.70;53.90
76789;DHT22;65740;52.464;13.446;2023-10-19T02:28:52;13.70;53.30
76789;DHT22;65740;52.464;13.446;2023-10-19T02:31:18;13.70;53.30
76789;DHT22;65740;52.464;13.446;2023-10-19T02:33:50;13.70;53.30
76789;DHT22;65740;52.464;13.446;2023-10-19T02:38:56;13.70;53.50
76789;DHT22;65740;52.464;13.446;2023-10-19T02:41:25;13.70;53.20
76789;DHT22;65740;52.464;13.446;2023-10-19T02:43:52;13.70;53.30
76789;DHT22;65740;52.464;13.446;2023-10-19T02:46:33;13.70;53.20
76789;DHT22;65740;52.464;13.446;2023-10-19T02:49:05;13.60;53.20
76789;DHT22;65740;52.464;13.446;2023-10-19T02:51:35;13.60;53.20
76789;DHT22;65740;52.464;13.446;2023-10-19T02:54:02;13.70;53.30
76789;DHT22;65740;52.464;13.446;2023-10-19T02:56:28;13.60;53.10
76789;DHT22;65740;52.464;13.446;2023-10-19T02:58:55;13.70;53.20
76789;DHT22;65740;52.464;13.446;2023-10-19T03:01:27;13.60;53.10
76789;DHT22;65740;52.464;13.446;2023-10-19T03:03:57;13.60;53.10
76789;DHT22;65740;52.464;13.446;2023-10-19T03:06:26;13.60;53.20
76789;DHT22;65740;52.464;13.446;2023-10-19T03:08:57;13.60;53.10
76789;DHT22;65740;52.464;13.446;2023-10-19T03:11:41;13.60;53.10
76789;DHT22;65740;52.464;13.446;2023-10-19T03:14:08;13.60;53.00
76789;DHT22;65740;52.464;13.446;2023-10-19T03:16:36;13.60;53.10
76789;DHT22;65740;52.464;13.446;2023-10-19T03:19:02;13.60;53.10
76789;DHT22;65740;52.464;13.446;2023-10-19T03:21:30;13.70;53.10
76789;DHT22;65740;52.464;13.446;2023-10-19T03:23:59;13.60;53.00
76789;DHT22;65740;52.464;13.446;2023-10-19T03:26:30;13.60;53.00
76789;DHT22;65740;52.464;13.446;2023-10-19T03:28:59;13.70;53.10
76789;DHT22;65740;52.464;13.446;2023-10-19T03:31:32;13.60;53.10
76789;DHT22;65740;52.464;13.446;2023-10-19T03:33:58;13.60;53.10
76789;DHT22;65740;52.464;13.446;2023-10-19T03:36:25;13.60;53.10
76789;DHT22;65740;52.464;13.446;2023-10-19T03:38:51;13.60;53.10
76789;DHT22;65740;52.464;13.446;2023-10-19T03:41:21;13.60;53.20
76789;DHT22;65740;52.464;13.446;2023-10-19T03:43:48;13.60;53.20
76789;DHT22;65740;52.464;13.446;2023-10-19T03:46:16;13.60;53.20
76789;DHT22;65740;52.464;13.446;2023-10-19T03:48:55;13.60;53.10
76789;DHT22;65740;52.464;13.446;2023-10-19T03:51:26;13.60;53.20
76789;DHT22;65740;52.464;13.446;2023-10-19T03:53:52;13.60;53.20
76789;DHT22;65740;52.464;13.446;2023-10-19T03:56:26;13.60;53.10
76789;DHT22;65740;52.464;13.446;2023-10-19T03:58:52;13.50;53.00
76789;DHT22;65740;52.464;13.446;2023-10-19T04:01:17;13.50;53.00
76789;DHT22;65740;52.464;13.446;2023-10-19T04:03:45;13.50;53.10
76789;DHT22;65740;52.464;13.446;2023-10-19T04:06:11;13.50;53.00
76789;DHT22;65740;52.464;13.446;2023-10-19T04:08:40;13.60;53.10
76789;DHT22;65740;52.464;13.446;2023-10-19T04:11:08;13.50;53.10
76789;DHT22;65740;52.464;13.446;2023-10-19T04:13:35;13.50;53.00
76789;DHT22;65740;52.464;13.446;2023-10-19T04:16:03;13.50;53.00
76789;DHT22;65740;52.464;13.446;2023-10-19T04:18:30;13.50;53.10
76789;DHT22;65740;52.464;13.446;2023-10-19T04:20:56;13.50;53.00
76789;DHT22;65740;52.464;13.446;2023-10-19T04:23:24;13.50;53.10
76789;DHT22;65740;52.464;13.446;2023-10-19T04:25:54;13.50;53.80
76789;DHT22;65740;52.464;13.446;2023-10-19T04:28:22;13.50;53.00
76789;DHT22;65740;52.464;13.446;2023-10-19T04:30:56;13.50;53.10
76789;DHT22;65740;52.464;13.446;2023-10-19T04:33:26;13.50;53.10
76789;DHT22;65740;52.464;13.446;2023-10-19T04:35:54;13.50;53.20
76789;DHT22;65740;52.464;13.446;2023-10-19T04:38:24;13.50;53.20
76789;DHT22;65740;52.464;13.446;2023-10-19T04:40:49;13.50;53.20
76789;DHT22;65740;52.464;13.446;2023-10-19T04:43:15;13.50;53.20
76789;DHT22;65740;52.464;13.446;2023-10-19T04:45:42;13.50;53.30
76789;DHT22;65740;52.464;13.446;2023-10-19T04:48:10;13.50;53.20
76789;DHT22;65740;52.464;13.446;2023-10-19T04:50:35;13.50;53.20
76789;DHT22;65740;52.464;13.446;2023-10-19T04:53:01;13.50;53.20
76789;DHT22;65740;52.464;13.446;2023-10-19T04:55:28;13.50;53.10
76789;DHT22;65740;52.464;13.446;2023-10-19T04:57:55;13.50;53.10
76789;DHT22;65740;52.464;13.446;2023-10-19T05:00:22;13.50;53.10
76789;DHT22;65740;52.464;13.446;2023-10-19T05:02:50;13.50;53.10
76789;DHT22;65740;52.464;13.446;2023-10-19T05:05:18;13.50;53.20
76789;DHT22;65740;52.464;13.446;2023-10-19T05:07:44;13.50;53.10
76789;DHT22;65740;52.464;13.446;2023-10-19T05:10:10;13.50;53.20
76789;DHT22;65740;52.464;13.446;2023-10-19T05:12:36;13.40;53.10
76789;DHT22;65740;52.464;13.446;2023-10-19T05:15:02;13.50;53.20
76789;DHT22;65740;52.464;13.446;2023-10-19T05:17:28;13.40;53.10
76789;DHT22;65740;52.464;13.446;2023-10-19T05:19:53;13.50;53.00
76789;DHT22;65740;52.464;13.446;2023-10-19T05:22:19;13.50;53.20
76789;DHT22;65740;52.464;13.446;2023-10-19T05:24:44;13.50;53.20
76789;DHT22;65740;52.464;13.446;2023-10-19T05:27:12;13.40;53.10
76789;DHT22;65740;52.464;13.446;2023-10-19T05:29:37;13.40;53.00
76789;DHT22;65740;52.464;13.446;2023-10-19T05:32:05;13.40;53.10
76789;DHT22;65740;52.464;13.446;2023-10-19T05:34:31;13.40;53.10
76789;DHT22;65740;52.464;13.446;2023-10-19T05:37:00;13.40;53.80
76789;DHT22;65740;52.464;13.446;2023-10-19T05:39:28;13.40;52.90
76789;DHT22;65740;52.464;13.446;2023-10-19T05:41:54;13.40;53.10
76789;DHT22;65740;52.464;13.446;2023-10-19T05:44:20;13.40;53.10
76789;DHT22;65740;52.464;13.446;2023-10-19T05:46:46;13.40;53.00
76789;DHT22;65740;52.464;13.446;2023-10-19T05:49:12;13.40;53.10
76789;DHT22;65740;52.464;13.446;2023-10-19T05:51:38;13.40;53.00
76789;DHT22;65740;52.464;13.446;2023-10-19T05:54:04;13.40;53.10
76789;DHT22;65740;52.464;13.446;2023-10-19T05:56:31;13.40;53.00
76789;DHT22;65740;52.464;13.446;2023-10-19T05:58:57;13.40;53.00
76789;DHT22;65740;52.464;13.446;2023-10-19T06:01:23;13.40;53.10
76789;DHT22;65740;52.464;13.446;2023-10-19T06:03:49;13.40;53.10
76789;DHT22;65740;52.464;13.446;2023-10-19T06:06:16;13.40;53.10
76789;DHT22;65740;52.464;13.446;2023-10-19T06:08:41;13.40;53.70
76789;DHT22;65740;52.464;13.446;2023-10-19T06:11:07;13.40;53.00
76789;DHT22;65740;52.464;13.446;2023-10-19T06:13:33;13.40;53.10
76789;DHT22;65740;52.464;13.446;2023-10-19T06:15:58;13.40;53.10
76789;DHT22;65740;52.464;13.446;2023-10-19T06:18:24;13.40;53.10
76789;DHT22;65740;52.464;13.446;2023-10-19T06:20:50;13.40;53.10
76789;DHT22;65740;52.464;13.446;2023-10-19T06:23:17;13.40;53.10
76789;DHT22;65740;52.464;13.446;2023-10-19T06:25:43;13.40;53.10
76789;DHT22;65740;52.464;13.446;2023-10-19T06:28:09;13.40;53.10
76789;DHT22;65740;52.464;13.446;2023-10-19T06:30:37;13.40;53.10
76789;DHT22;65740;52.464;13.446;2023-10-19T06:33:03;13.40;53.10
76789;DHT22;65740;52.464;13.446;2023-10-19T06:35:30;13.40;53.10
76789;DHT22;65740;52.464;13.446;2023-10-19T06:38:03;13.40;53.20
76789;DHT22;65740;52.464;13.446;2023-10-19T06:40:34;13.40;53.10
76789;DHT22;65740;52.464;13.446;2023-10-19T06:43:01;13.40;53.20
76789;DHT22;65740;52.464;13.446;2023-10-19T06:45:28;13.40;53.10
76789;DHT22;65740;52.464;13.446;2023-10-19T06:47:55;13.40;53.10
76789;DHT22;65740;52.464;13.446;2023-10-19T06:50:23;13.40;53.10
76789;DHT22;65740;52.464;13.446;2023-10-19T06:52:49;13.40;53.30
76789;DHT22;65740;52.464;13.446;2023-10-19T06:55:17;13.40;53.10
76789;DHT22;65740;52.464;13.446;2023-10-19T06:57:49;13.30;53.00
76789;DHT22;65740;52.464;13.446;2023-10-19T07:00:16;13.30;53.00
76789;DHT22;65740;52.464;13.446;2023-10-19T07:02:46;13.30;53.00
76789;DHT22;65740;52.464;13.446;2023-10-19T07:05:13;13.30;53.10
76789;DHT22;65740;52.464;13.446;2023-10-19T07:07:40;13.30;53.00
76789;DHT22;65740;52.464;13.446;2023-10-19T07:10:07;13.30;53.00
76789;DHT22;65740;52.464;13.446;2023-10-19T07:12:34;13.30;53.00
76789;DHT22;65740;52.464;13.446;2023-10-19T07:15:00;13.30;53.10
76789;DHT22;65740;52.464;13.446;2023-10-19T07:17:27;13.30;53.10
76789;DHT22;65740;52.464;13.446;2023-10-19T07:19:53;13.30;53.10
76789;DHT22;65740;52.464;13.446;2023-10-19T07:22:18;13.30;53.10
76789;DHT22;65740;52.464;13.446;2023-10-19T07:24:48;13.30;53.10
76789;DHT22;65740;52.464;13.446;2023-10-19T07:27:14;13.30;53.10
76789;DHT22;65740;52.464;13.446;2023-10-19T07:29:44;13.30;53.70
76789;DHT22;65740;52.464;13.446;2023-10-19T07:32:10;13.30;53.10
76789;DHT22;65740;52.464;13.446;2023-10-19T07:34:39;13.30;53.10
76789;DHT22;65740;52.464;13.446;2023-10-19T07:37:04;13.30;53.10
76789;DHT22;65740;52.464;13.446;2023-10-19T07:39:32;13.30;53.70
76789;DHT22;65740;52.464;13.446;2023-10-19T07:41:59;13.30;53.10
76789;DHT22;65740;52.464;13.446;2023-10-19T07:44:25;13.30;53.10
76789;DHT22;65740;52.464;13.446;2023-10-19T07:46:52;13.30;53.10
76789;DHT22;65740;52.464;13.446;2023-10-19T07:49:17;13.30;53.00
76789;DHT22;65740;52.464;13.446;2023-10-19T07:51:49;13.30;53.30
76789;DHT22;65740;52.464;13.446;2023-10-19T07:54:16;13.30;53.60
76789;DHT22;65740;52.464;13.446;2023-10-19T07:56:42;13.40;53.00
76789;DHT22;65740;52.464;13.446;2023-10-19T07:59:09;13.50;52.80
76789;DHT22;65740;52.464;13.446;2023-10-19T08:01:34;13.70;52.50
76789;DHT22;65740;52.464;13.446;2023-10-19T08:04:01;13.90;52.20
76789;DHT22;65740;52.464;13.446;2023-10-19T08:06:27;14.20;51.80
76789;DHT22;65740;52.464;13.446;2023-10-19T08:08:53;14.40;51.40
76789;DHT22;65740;52.464;13.446;2023-10-19T08:11:18;14.60;50.80
76789;DHT22;65740;52.464;13.446;2023-10-19T08:13:44;14.80;51.00
76789;DHT22;65740;52.464;13.446;2023-10-19T08:16:09;15.10;50.70
76789;DHT22;65740;52.464;13.446;2023-10-19T08:18:37;15.30;50.30
76789;DHT22;65740;52.464;13.446;2023-10-19T08:21:03;15.40;50.00
76789;DHT22;65740;52.464;13.446;2023-10-19T08:23:29;15.60;49.80
76789;DHT22;65740;52.464;13.446;2023-10-19T08:25:57;15.80;49.50
76789;DHT22;65740;52.464;13.446;2023-10-19T08:28:23;15.90;49.30
76789;DHT22;65740;52.464;13.446;2023-10-19T08:30:49;16.00;49.20
76789;DHT22;65740;52.464;13.446;2023-10-19T08:33:26;16.10;49.10
76789;DHT22;65740;52.464;13.446;2023-10-19T08:35:53;16.30;49.00
76789;DHT22;65740;52.464;13.446;2023-10-19T08:38:25;16.40;48.80
76789;DHT22;65740;52.464;13.446;2023-10-19T08:40:51;16.40;48.70
76789;DHT22;65740;52.464;13.446;2023-10-19T08:43:18;16.50;48.60
76789;DHT22;65740;52.464;13.446;2023-10-19T08:45:45;16.60;48.40
76789;DHT22;65740;52.464;13.446;2023-10-19T08:48:11;16.80;48.30
76789;DHT22;65740;52.464;13.446;2023-10-19T08:50:37;16.80;48.30
76789;DHT22;65740;52.464;13.446;2023-10-19T08:53:04;16.90;48.10
76789;DHT22;65740;52.464;13.446;2023-10-19T08:55:31;17.10;48.10
76789;DHT22;65740;52.464;13.446;2023-10-19T08:57:59;17.10;47.90
76789;DHT22;65740;52.464;13.446;2023-10-19T09:00:26;17.20;47.90
76789;DHT22;65740;52.464;13.446;2023-10-19T09:02:54;17.10;48.00
76789;DHT22;65740;52.464;13.446;2023-10-19T09:05:22;17.10;48.10
76789;DHT22;65740;52.464;13.446;2023-10-19T09:07:54;17.10;48.20
76789;DHT22;65740;52.464;13.446;2023-10-19T09:10:24;17.10;48.30
76789;DHT22;65740;52.464;13.446;2023-10-19T09:13:07;17.10;48.50
76789;DHT22;65740;52.464;13.446;2023-10-19T09:15:36;17.00;48.50
76789;DHT22;65740;52.464;13.446;2023-10-19T09:18:19;16.90;48.50
76789;DHT22;65740;52.464;13.446;2023-10-19T09:20:50;16.90;49.00
76789;DHT22;65740;52.464;13.446;2023-10-19T09:23:22;16.80;49.10
76789;DHT22;65740;52.464;13.446;2023-10-19T09:25:52;16.80;49.50
76789;DHT22;65740;52.464;13.446;2023-10-19T09:28:21;16.80;49.50
76789;DHT22;65740;52.464;13.446;2023-10-19T09:30:49;16.80;50.30
76789;DHT22;65740;52.464;13.446;2023-10-19T09:33:16;16.70;50.30
76789;DHT22;65740;52.464;13.446;2023-10-19T09:35:46;16.70;50.40
76789;DHT22;65740;52.464;13.446;2023-10-19T09:38:16;16.70;50.60
76789;DHT22;65740;52.464;13.446;2023-10-19T09:40:47;16.90;50.30
76789;DHT22;65740;52.464;13.446;2023-10-19T09:43:16;16.90;49.90
76789;DHT22;65740;52.464;13.446;2023-10-19T09:45:49;17.00;49.60
76789;DHT22;65740;52.464;13.446;2023-10-19T09:48:20;17.20;49.40
76789;DHT22;65740;52.464;13.446;2023-10-19T09:50:51;17.30;49.10
76789;DHT22;65740;52.464;13.446;2023-10-19T09:53:27;17.50;48.90
76789;DHT22;65740;52.464;13.446;2023-10-19T09:55:57;17.60;48.70
76789;DHT22;65740;52.464;13.446;2023-10-19T09:58:29;17.80;48.40
76789;DHT22;65740;52.464;13.446;2023-10-19T10:00:56;17.90;48.30
76789;DHT22;65740;52.464;13.446;2023-10-19T10:06:13;18.10;48.00
76789;DHT22;65740;52.464;13.446;2023-10-19T10:08:44;18.10;47.80
76789;DHT22;65740;52.464;13.446;2023-10-19T10:11:25;18.20;47.90
76789;DHT22;65740;52.464;13.446;2023-10-19T10:13:58;18.30;47.90
76789;DHT22;65740;52.464;13.446;2023-10-19T10:16:28;18.30;47.60
76789;DHT22;65740;52.464;13.446;2023-10-19T10:19:04;18.40;47.70
76789;DHT22;65740;52.464;13.446;2023-10-19T10:21:30;18.40;47.50
76789;DHT22;65740;52.464;13.446;2023-10-19T10:24:00;18.50;47.50
76789;DHT22;65740;52.464;13.446;2023-10-19T10:26:30;18.60;47.50
76789;DHT22;65740;52.464;13.446;2023-10-19T10:29:08;18.60;47.50
76789;DHT22;65740;52.464;13.446;2023-10-19T10:31:46;18.60;47.40
76789;DHT22;65740;52.464;13.446;2023-10-19T10:37:04;18.80;47.40
76789;DHT22;65740;52.464;13.446;2023-10-19T10:39:31;18.80;47.30
76789;DHT22;65740;52.464;13.446;2023-10-19T10:42:04;18.80;47.30
76789;DHT22;65740;52.464;13.446;2023-10-19T10:44:47;18.90;47.30
76789;DHT22;65740;52.464;13.446;2023-10-19T10:47:20;18.90;47.30
76789;DHT22;65740;52.464;13.446;2023-10-19T10:49:55;19.00;47.30
76789;DHT22;65740;52.464;13.446;2023-10-19T10:52:35;19.00;47.20
76789;DHT22;65740;52.464;13.446;2023-10-19T10:55:12;19.00;47.20
76789;DHT22;65740;52.464;13.446;2023-10-19T10:57:40;19.00;47.40
76789;DHT22;65740;52.464;13.446;2023-10-19T11:00:14;18.90;47.40
76789;DHT22;65740;52.464;13.446;2023-10-19T11:03:06;18.90;47.60
76789;DHT22;65740;52.464;13.446;2023-10-19T11:05:36;18.80;47.70
76789;DHT22;65740;52.464;13.446;2023-10-19T11:08:13;18.70;47.80
76789;DHT22;65740;52.464;13.446;2023-10-19T11:10:43;18.60;48.00
76789;DHT22;65740;52.464;13.446;2023-10-19T11:13:14;18.50;48.10
76789;DHT22;65740;52.464;13.446;2023-10-19T11:15:51;18.50;48.30
76789;DHT22;65740;52.464;13.446;2023-10-19T11:18:38;18.40;48.60
76789;DHT22;65740;52.464;13.446;2023-10-19T11:21:12;18.40;49.40
76789;DHT22;65740;52.464;13.446;2023-10-19T11:23:48;18.50;48.70
76789;DHT22;65740;52.464;13.446;2023-10-19T11:26:17;18.50;48.40
76789;DHT22;65740;52.464;13.446;2023-10-19T11:28:43;18.70;48.40
76789;DHT22;65740;52.464;13.446;2023-10-19T11:31:13;18.70;48.20
76789;DHT22;65740;52.464;13.446;2023-10-19T11:33:44;18.80;48.20
76789;DHT22;65740;52.464;13.446;2023-10-19T11:36:11;18.90;48.10
76789;DHT22;65740;52.464;13.446;2023-10-19T11:38:48;19.00;47.90
76789;DHT22;65740;52.464;13.446;2023-10-19T11:41:15;19.10;47.80
76789;DHT22;65740;52.464;13.446;2023-10-19T11:43:42;19.20;47.80
76789;DHT22;65740;52.464;13.446;2023-10-19T11:46:09;19.20;47.70
76789;DHT22;65740;52.464;13.446;2023-10-19T11:48:35;19.30;47.60
76789;DHT22;65740;52.464;13.446;2023-10-19T11:51:02;19.30;47.50
76789;DHT22;65740;52.464;13.446;2023-10-19T11:53:35;19.30;47.40
76789;DHT22;65740;52.464;13.446;2023-10-19T11:56:06;19.40;47.40
76789;DHT22;65740;52.464;13.446;2023-10-19T11:58:33;19.50;47.50
76789;DHT22;65740;52.464;13.446;2023-10-19T12:01:08;19.50;47.30
76789;DHT22;65740;52.464;13.446;2023-10-19T12:03:37;19.50;47.30
76789;DHT22;65740;52.464;13.446;2023-10-19T12:06:04;19.60;47.30
76789;DHT22;65740;52.464;13.446;2023-10-19T12:08:36;19.60;47.20
76789;DHT22;65740;52.464;13.446;2023-10-19T12:11:05;19.70;47.30
76789;DHT22;65740;52.464;13.446;2023-10-19T12:13:41;19.70;47.30
76789;DHT22;65740;52.464;13.446;2023-10-19T12:16:07;19.70;47.20
76789;DHT22;65740;52.464;13.446;2023-10-19T12:18:32;19.80;47.30
76789;DHT22;65740;52.464;13.446;2023-10-19T12:20:58;19.80;47.30
76789;DHT22;65740;52.464;13.446;2023-10-19T12:23:25;19.80;47.20
76789;DHT22;65740;52.464;13.446;2023-10-19T12:25:51;19.80;47.20
76789;DHT22;65740;52.464;13.446;2023-10-19T12:28:17;19.90;47.10
76789;DHT22;65740;52.464;13.446;2023-10-19T12:30:43;19.90;47.10
76789;DHT22;65740;52.464;13.446;2023-10-19T12:33:09;19.90;47.30
76789;DHT22;65740;52.464;13.446;2023-10-19T12:35:41;19.90;47.90
76789;DHT22;65740;52.464;13.446;2023-10-19T12:38:25;19.90;47.40
76789;DHT22;65740;52.464;13.446;2023-10-19T12:40:52;20.00;47.40
76789;DHT22;65740;52.464;13.446;2023-10-19T12:43:18;20.00;47.40
76789;DHT22;65740;52.464;13.446;2023-10-19T12:45:45;20.10;47.40
76789;DHT22;65740;52.464;13.446;2023-10-19T12:48:16;20.10;47.50
76789;DHT22;65740;52.464;13.446;2023-10-19T12:50:42;20.10;47.60
76789;DHT22;65740;52.464;13.446;2023-10-19T12:53:08;20.10;47.70
76789;DHT22;65740;52.464;13.446;2023-10-19T12:55:35;20.20;47.80
76789;DHT22;65740;52.464;13.446;2023-10-19T12:58:04;20.20;47.90
76789;DHT22;65740;52.464;13.446;2023-10-19T13:00:33;20.20;48.00
76789;DHT22;65740;52.464;13.446;2023-10-19T13:03:07;20.30;48.00
76789;DHT22;65740;52.464;13.446;2023-10-19T13:05:34;20.30;47.90
76789;DHT22;65740;52.464;13.446;2023-10-19T13:08:00;20.30;48.10
76789;DHT22;65740;52.464;13.446;2023-10-19T13:10:30;20.20;48.10
76789;DHT22;65740;52.464;13.446;2023-10-19T13:13:04;20.20;48.30
76789;DHT22;65740;52.464;13.446;2023-10-19T13:15:35;20.10;48.40
76789;DHT22;65740;52.464;13.446;2023-10-19T13:18:05;20.00;48.50
76789;DHT22;65740;52.464;13.446;2023-10-19T13:20:32;19.90;48.70
76789;DHT22;65740;52.464;13.446;2023-10-19T13:23:02;19.90;48.90
76789;DHT22;65740;52.464;13.446;2023-10-19T13:25:31;19.80;49.10
76789;DHT22;65740;52.464;13.446;2023-10-19T13:28:20;19.70;49.40
76789;DHT22;65740;52.464;13.446;2023-10-19T13:30:49;19.60;50.20
76789;DHT22;65740;52.464;13.446;2023-10-19T13:33:17;19.50;49.80
76789;DHT22;65740;52.464;13.446;2023-10-19T13:35:44;19.50;50.20
76789;DHT22;65740;52.464;13.446;2023-10-19T13:38:10;19.40;50.20
76789;DHT22;65740;52.464;13.446;2023-10-19T13:40:41;19.40;50.00
76789;DHT22;65740;52.464;13.446;2023-10-19T13:43:08;19.30;50.30
76789;DHT22;65740;52.464;13.446;2023-10-19T13:45:35;19.30;50.30
76789;DHT22;65740;52.464;13.446;2023-10-19T13:48:05;19.40;50.00
76789;DHT22;65740;52.464;13.446;2023-10-19T13:50:32;19.40;49.80
76789;DHT22;65740;52.464;13.446;2023-10-19T13:52:58;19.60;50.30
76789;DHT22;65740;52.464;13.446;2023-10-19T13:55:26;19.70;49.30
76789;DHT22;65740;52.464;13.446;2023-10-19T13:57:59;19.80;49.10
76789;DHT22;65740;52.464;13.446;2023-10-19T14:00:24;19.90;48.90
76789;DHT22;65740;52.464;13.446;2023-10-19T14:02:56;20.00;48.80
76789;DHT22;65740;52.464;13.446;2023-10-19T14:05:23;20.10;48.70
76789;DHT22;65740;52.464;13.446;2023-10-19T14:07:50;20.20;48.70
76789;DHT22;65740;52.464;13.446;2023-10-19T14:10:17;20.30;48.40
76789;DHT22;65740;52.464;13.446;2023-10-19T14:12:45;20.40;48.30
76789;DHT22;65740;52.464;13.446;2023-10-19T14:15:18;20.40;48.20
76789;DHT22;65740;52.464;13.446;2023-10-19T14:17:46;20.50;48.20
76789;DHT22;65740;52.464;13.446;2023-10-19T14:20:13;20.50;48.10
76789;DHT22;65740;52.464;13.446;2023-10-19T14:25:07;20.60;48.00
76789;DHT22;65740;52.464;13.446;2023-10-19T14:27:36;20.60;47.80
76789;DHT22;65740;52.464;13.446;2023-10-19T14:30:03;20.70;47.80
76789;DHT22;65740;52.464;13.446;2023-10-19T14:32:29;20.70;47.70
76789;DHT22;65740;52.464;13.446;2023-10-19T14:34:55;20.80;47.60
76789;DHT22;65740;52.464;13.446;2023-10-19T14:37:21;20.80;47.40
76789;DHT22;65740;52.464;13.446;2023-10-19T14:39:47;20.90;47.40
76789;DHT22;65740;52.464;13.446;2023-10-19T14:42:12;20.90;47.40
76789;DHT22;65740;52.464;13.446;2023-10-19T14:44:38;20.90;47.50
76789;DHT22;65740;52.464;13.446;2023-10-19T14:47:05;20.80;47.40
76789;DHT22;65740;52.464;13.446;2023-10-19T14:49:31;20.80;47.40
76789;DHT22;65740;52.464;13.446;2023-10-19T14:51:58;20.80;47.70
76789;DHT22;65740;52.464;13.446;2023-10-19T14:54:23;20.70;47.80
76789;DHT22;65740;52.464;13.446;2023-10-19T14:56:49;20.60;48.00
76789;DHT22;65740;52.464;13.446;2023-10-19T14:59:15;20.60;48.90
76789;DHT22;65740;52.464;13.446;2023-10-19T15:01:40;20.50;48.40
76789;DHT22;65740;52.464;13.446;2023-10-19T15:04:06;20.40;48.60
76789;DHT22;65740;52.464;13.446;2023-10-19T15:06:32;20.30;48.70
76789;DHT22;65740;52.464;13.446;2023-10-19T15:08:57;20.30;48.80
76789;DHT22;65740;52.464;13.446;2023-10-19T15:11:23;20.20;49.00
76789;DHT22;65740;52.464;13.446;2023-10-19T15:13:50;20.10;49.00
76789;DHT22;65740;52.464;13.446;2023-10-19T15:16:16;20.10;49.60
76789;DHT22;65740;52.464;13.446;2023-10-19T15:18:42;20.00;49.30
76789;DHT22;65740;52.464;13.446;2023-10-19T15:21:08;20.00;49.40
76789;DHT22;65740;52.464;13.446;2023-10-19T15:23:35;20.00;49.40
76789;DHT22;65740;52.464;13.446;2023-10-19T15:26:00;20.00;49.40
76789;DHT22;65740;52.464;13.446;2023-10-19T15:28:27;20.10;49.30
76789;DHT22;65740;52.464;13.446;2023-10-19T15:30:58;20.10;49.10
76789;DHT22;65740;52.464;13.446;2023-10-19T15:33:24;20.20;48.90
76789;DHT22;65740;52.464;13.446;2023-10-19T15:35:50;20.30;48.70
76789;DHT22;65740;52.464;13.446;2023-10-19T15:38:16;20.40;48.50
76789;DHT22;65740;52.464;13.446;2023-10-19T15:40:42;20.50;48.50